sensor_id;sensor_type;location;lat;lon;timestamp;P1;durP1;ratioP1;P2;durP2;ratioP2
1140;SDS011;559;48.628;8.924;2023-02-18T00:02:08;103.10;;;97.80;;
1140;SDS011;559;48.628;8.924;2023-02-18T00:04:35;102.38;;;97.00;;
1140;SDS011;559;48.628;8.924;2023-02-18T00:07:01;101.75;;;96.55;;
1140;SDS011;559;48.628;8.924;2023-02-18T00:09:28;104.88;;;99.50;;
1140;SDS011;559;48.628;8.924;2023-02-18T00:11:54;101.65;;;96.35;;
1140;SDS011;559;48.628;8.924;2023-02-18T00:14:22;103.75;;;98.45;;
1140;SDS011;559;48.628;8.924;2023-02-18T00:16:49;102.05;;;96.85;;
1140;SDS011;559;48.628;8.924;2023-02-18T00:19:17;100.28;;;95.07;;
1140;SDS011;559;48.628;8.924;2023-02-18T00:21:44;98.70;;;93.57;;
1140;SDS011;559;48.628;8.924;2023-02-18T00:24:12;102.65;;;97.35;;
1140;SDS011;559;48.628;8.924;2023-02-18T00:26:40;98.35;;;93.15;;
1140;SDS011;559;48.628;8.924;2023-02-18T00:29:07;100.30;;;95.00;;
1140;SDS011;559;48.628;8.924;2023-02-18T00:31:35;98.03;;;93.03;;
1140;SDS011;559;48.628;8.924;2023-02-18T00:34:02;97.07;;;92.07;;
1140;SDS011;559;48.628;8.924;2023-02-18T00:36:30;97.03;;;92.03;;
1140;SDS011;559;48.628;8.924;2023-02-18T00:38:57;98.85;;;93.75;;
1140;SDS011;559;48.628;8.924;2023-02-18T00:41:25;97.45;;;92.45;;
1140;SDS011;559;48.628;8.924;2023-02-18T00:43:52;92.05;;;87.25;;
1140;SDS011;559;48.628;8.924;2023-02-18T00:46:19;98.15;;;93.03;;
1140;SDS011;559;48.628;8.924;2023-02-18T00:48:48;95.47;;;90.60;;
1140;SDS011;559;48.628;8.924;2023-02-18T00:51:14;99.18;;;94.18;;
1140;SDS011;559;48.628;8.924;2023-02-18T00:53:41;94.13;;;89.32;;
1140;SDS011;559;48.628;8.924;2023-02-18T00:56:07;93.68;;;88.88;;
1140;SDS011;559;48.628;8.924;2023-02-18T00:58:34;98.55;;;93.65;;
1140;SDS011;559;48.628;8.924;2023-02-18T01:01:01;97.57;;;92.68;;
1140;SDS011;559;48.628;8.924;2023-02-18T01:03:28;95.70;;;90.80;;
1140;SDS011;559;48.628;8.924;2023-02-18T01:05:56;93.07;;;88.25;;
1140;SDS011;559;48.628;8.924;2023-02-18T01:08:23;98.55;;;93.55;;
1140;SDS011;559;48.628;8.924;2023-02-18T01:10:51;98.38;;;93.30;;
1140;SDS011;559;48.628;8.924;2023-02-18T01:13:19;98.15;;;93.10;;
1140;SDS011;559;48.628;8.924;2023-02-18T01:15:46;96.00;;;91.00;;
1140;SDS011;559;48.628;8.924;2023-02-18T01:18:13;97.70;;;92.70;;
1140;SDS011;559;48.628;8.924;2023-02-18T01:20:40;97.65;;;92.70;;
1140;SDS011;559;48.628;8.924;2023-02-18T01:23:09;97.57;;;92.68;;
1140;SDS011;559;48.628;8.924;2023-02-18T01:25:36;93.47;;;88.68;;
1140;SDS011;559;48.628;8.924;2023-02-18T01:28:03;92.55;;;87.85;;
1140;SDS011;559;48.628;8.924;2023-02-18T01:30:30;97.05;;;92.25;;
1140;SDS011;559;48.628;8.924;2023-02-18T01:32:57;95.25;;;90.45;;
1140;SDS011;559;48.628;8.924;2023-02-18T01:35:24;91.53;;;86.82;;
1140;SDS011;559;48.628;8.924;2023-02-18T01:37:50;92.35;;;87.60;;
1140;SDS011;559;48.628;8.924;2023-02-18T01:40:21;92.85;;;88.05;;
1140;SDS011;559;48.628;8.924;2023-02-18T01:42:49;97.85;;;93.05;;
1140;SDS011;559;48.628;8.924;2023-02-18T01:48:28;92.55;;;87.88;;
1140;SDS011;559;48.628;8.924;2023-02-18T01:50:57;94.38;;;89.60;;
1140;SDS011;559;48.628;8.924;2023-02-18T01:53:27;89.15;;;84.65;;
1140;SDS011;559;48.628;8.924;2023-02-18T01:55:58;89.07;;;84.57;;
1140;SDS011;559;48.628;8.924;2023-02-18T01:58:25;87.97;;;83.57;;
1140;SDS011;559;48.628;8.924;2023-02-18T02:00:52;88.97;;;84.68;;
1140;SDS011;559;48.628;8.924;2023-02-18T02:03:18;88.38;;;84.00;;
1140;SDS011;559;48.628;8.924;2023-02-18T02:05:45;86.88;;;82.35;;
1140;SDS011;559;48.628;8.924;2023-02-18T02:08:11;87.70;;;83.40;;
1140;SDS011;559;48.628;8.924;2023-02-18T02:10:41;88.32;;;83.93;;
1140;SDS011;559;48.628;8.924;2023-02-18T02:13:17;88.22;;;83.93;;
1140;SDS011;559;48.628;8.924;2023-02-18T02:15:48;87.93;;;83.57;;
1140;SDS011;559;48.628;8.924;2023-02-18T02:18:23;87.97;;;83.57;;
1140;SDS011;559;48.628;8.924;2023-02-18T02:21:05;86.60;;;82.40;;
1140;SDS011;559;48.628;8.924;2023-02-18T02:23:57;87.75;;;83.45;;
1140;SDS011;559;48.628;8.924;2023-02-18T02:27:03;89.30;;;84.80;;
1140;SDS011;559;48.628;8.924;2023-02-18T02:29:54;91.47;;;86.95;;
1140;SDS011;559;48.628;8.924;2023-02-18T02:33:10;89.20;;;84.80;;
1140;SDS011;559;48.628;8.924;2023-02-18T02:35:48;90.70;;;86.20;;
1140;SDS011;559;48.628;8.924;2023-02-18T02:38:18;91.72;;;87.13;;
1140;SDS011;559;48.628;8.924;2023-02-18T02:40:51;92.35;;;87.75;;
1140;SDS011;559;48.628;8.924;2023-02-18T02:43:23;93.50;;;88.80;;
1140;SDS011;559;48.628;8.924;2023-02-18T02:45:54;95.50;;;90.75;;
1140;SDS011;559;48.628;8.924;2023-02-18T02:48:28;95.22;;;90.35;;
1140;SDS011;559;48.628;8.924;2023-02-18T02:51:02;96.40;;;91.53;;
1140;SDS011;559;48.628;8.924;2023-02-18T02:53:30;98.88;;;93.78;;
1140;SDS011;559;48.628;8.924;2023-02-18T02:55:59;100.22;;;95.13;;
1140;SDS011;559;48.628;8.924;2023-02-18T02:58:26;98.88;;;93.85;;
1140;SDS011;559;48.628;8.924;2023-02-18T03:00:55;96.03;;;90.93;;
1140;SDS011;559;48.628;8.924;2023-02-18T03:03:42;98.32;;;93.25;;
1140;SDS011;559;48.628;8.924;2023-02-18T03:06:24;99.10;;;94.00;;
1140;SDS011;559;48.628;8.924;2023-02-18T03:09:00;98.68;;;93.63;;
1140;SDS011;559;48.628;8.924;2023-02-18T03:11:29;95.00;;;90.00;;
1140;SDS011;559;48.628;8.924;2023-02-18T03:14:01;93.93;;;89.03;;
1140;SDS011;559;48.628;8.924;2023-02-18T03:16:34;93.22;;;88.32;;
1140;SDS011;559;48.628;8.924;2023-02-18T03:19:04;94.72;;;89.82;;
1140;SDS011;559;48.628;8.924;2023-02-18T03:21:35;94.20;;;89.07;;
1140;SDS011;559;48.628;8.924;2023-02-18T03:24:06;93.97;;;89.07;;
1140;SDS011;559;48.628;8.924;2023-02-18T03:26:34;96.10;;;91.00;;
1140;SDS011;559;48.628;8.924;2023-02-18T03:29:04;92.68;;;87.68;;
1140;SDS011;559;48.628;8.924;2023-02-18T03:31:33;97.60;;;92.40;;
1140;SDS011;559;48.628;8.924;2023-02-18T03:34:02;96.78;;;91.68;;
1140;SDS011;559;48.628;8.924;2023-02-18T03:36:30;95.68;;;90.60;;
1140;SDS011;559;48.628;8.924;2023-02-18T03:39:00;99.88;;;94.75;;
1140;SDS011;559;48.628;8.924;2023-02-18T03:41:29;95.93;;;90.82;;
1140;SDS011;559;48.628;8.924;2023-02-18T03:43:57;97.00;;;91.85;;
1140;SDS011;559;48.628;8.924;2023-02-18T03:46:25;98.60;;;93.10;;
1140;SDS011;559;48.628;8.924;2023-02-18T03:48:52;99.70;;;94.20;;
1140;SDS011;559;48.628;8.924;2023-02-18T03:51:18;99.28;;;94.00;;
1140;SDS011;559;48.628;8.924;2023-02-18T03:53:45;98.35;;;93.05;;
1140;SDS011;559;48.628;8.924;2023-02-18T03:56:13;97.13;;;91.72;;
1140;SDS011;559;48.628;8.924;2023-02-18T03:58:40;100.55;;;95.05;;
1140;SDS011;559;48.628;8.924;2023-02-18T04:01:06;103.25;;;97.75;;
1140;SDS011;559;48.628;8.924;2023-02-18T04:03:33;105.63;;;100.13;;
1140;SDS011;559;48.628;8.924;2023-02-18T04:05:59;103.72;;;98.22;;
1140;SDS011;559;48.628;8.924;2023-02-18T04:08:26;102.53;;;97.03;;
1140;SDS011;559;48.628;8.924;2023-02-18T04:10:52;101.30;;;95.80;;
1140;SDS011;559;48.628;8.924;2023-02-18T04:13:20;100.72;;;95.13;;
1140;SDS011;559;48.628;8.924;2023-02-18T04:15:47;99.35;;;93.97;;
1140;SDS011;559;48.628;8.924;2023-02-18T04:18:14;105.00;;;99.50;;
1140;SDS011;559;48.628;8.924;2023-02-18T04:20:41;107.40;;;101.75;;
1140;SDS011;559;48.628;8.924;2023-02-18T04:23:07;103.03;;;97.47;;
1140;SDS011;559;48.628;8.924;2023-02-18T04:25:34;101.80;;;96.32;;
1140;SDS011;559;48.628;8.924;2023-02-18T04:28:00;104.47;;;98.88;;
1140;SDS011;559;48.628;8.924;2023-02-18T04:30:28;104.32;;;98.70;;
1140;SDS011;559;48.628;8.924;2023-02-18T04:32:55;102.50;;;97.00;;
1140;SDS011;559;48.628;8.924;2023-02-18T04:35:21;107.57;;;101.88;;
1140;SDS011;559;48.628;8.924;2023-02-18T04:37:48;106.43;;;100.72;;
1140;SDS011;559;48.628;8.924;2023-02-18T04:40:15;103.43;;;97.78;;
1140;SDS011;559;48.628;8.924;2023-02-18T04:42:41;109.60;;;103.80;;
1140;SDS011;559;48.628;8.924;2023-02-18T04:45:08;106.05;;;100.25;;
1140;SDS011;559;48.628;8.924;2023-02-18T04:47:36;106.57;;;100.78;;
1140;SDS011;559;48.628;8.924;2023-02-18T04:50:02;104.63;;;98.82;;
1140;SDS011;559;48.628;8.924;2023-02-18T04:52:29;103.85;;;98.05;;
1140;SDS011;559;48.628;8.924;2023-02-18T04:54:56;107.22;;;101.45;;
1140;SDS011;559;48.628;8.924;2023-02-18T04:57:22;107.28;;;101.38;;
1140;SDS011;559;48.628;8.924;2023-02-18T04:59:49;104.03;;;98.15;;
1140;SDS011;559;48.628;8.924;2023-02-18T05:02:15;104.07;;;98.45;;
1140;SDS011;559;48.628;8.924;2023-02-18T05:04:43;106.18;;;100.57;;
1140;SDS011;559;48.628;8.924;2023-02-18T05:07:10;104.28;;;98.68;;
1140;SDS011;559;48.628;8.924;2023-02-18T05:09:36;102.43;;;96.82;;
1140;SDS011;559;48.628;8.924;2023-02-18T05:12:03;103.72;;;98.13;;
1140;SDS011;559;48.628;8.924;2023-02-18T05:14:29;101.70;;;96.20;;
1140;SDS011;559;48.628;8.924;2023-02-18T05:16:56;100.40;;;94.93;;
1140;SDS011;559;48.628;8.924;2023-02-18T05:19:22;102.68;;;97.07;;
1140;SDS011;559;48.628;8.924;2023-02-18T05:21:50;106.03;;;100.38;;
1140;SDS011;559;48.628;8.924;2023-02-18T05:24:17;107.88;;;102.28;;
1140;SDS011;559;48.628;8.924;2023-02-18T05:26:43;108.53;;;102.57;;
1140;SDS011;559;48.628;8.924;2023-02-18T05:29:10;110.13;;;104.22;;
1140;SDS011;559;48.628;8.924;2023-02-18T05:31:36;108.65;;;103.00;;
1140;SDS011;559;48.628;8.924;2023-02-18T05:34:03;112.05;;;106.25;;
1140;SDS011;559;48.628;8.924;2023-02-18T05:36:29;111.32;;;105.43;;
1140;SDS011;559;48.628;8.924;2023-02-18T05:38:57;108.03;;;102.32;;
1140;SDS011;559;48.628;8.924;2023-02-18T05:41:24;110.05;;;104.35;;
1140;SDS011;559;48.628;8.924;2023-02-18T05:43:50;108.18;;;102.53;;
1140;SDS011;559;48.628;8.924;2023-02-18T05:46:34;106.05;;;100.43;;
1140;SDS011;559;48.628;8.924;2023-02-18T05:49:01;104.25;;;98.75;;
1140;SDS011;559;48.628;8.924;2023-02-18T05:51:27;105.50;;;100.00;;
1140;SDS011;559;48.628;8.924;2023-02-18T05:53:54;105.25;;;99.65;;
1140;SDS011;559;48.628;8.924;2023-02-18T05:56:22;106.45;;;100.82;;
1140;SDS011;559;48.628;8.924;2023-02-18T05:58:48;101.95;;;96.55;;
1140;SDS011;559;48.628;8.924;2023-02-18T06:01:15;107.72;;;102.03;;
1140;SDS011;559;48.628;8.924;2023-02-18T06:03:41;106.80;;;101.15;;
1140;SDS011;559;48.628;8.924;2023-02-18T06:06:08;108.88;;;103.28;;
1140;SDS011;559;48.628;8.924;2023-02-18T06:08:34;107.80;;;102.13;;
1140;SDS011;559;48.628;8.924;2023-02-18T06:11:01;110.05;;;104.35;;
1140;SDS011;559;48.628;8.924;2023-02-18T06:13:29;110.60;;;104.80;;
1140;SDS011;559;48.628;8.924;2023-02-18T06:15:55;111.90;;;106.10;;
1140;SDS011;559;48.628;8.924;2023-02-18T06:18:22;114.07;;;108.07;;
1140;SDS011;559;48.628;8.924;2023-02-18T06:20:49;113.50;;;107.90;;
1140;SDS011;559;48.628;8.924;2023-02-18T06:23:15;112.57;;;106.88;;
1140;SDS011;559;48.628;8.924;2023-02-18T06:25:42;110.82;;;105.20;;
1140;SDS011;559;48.628;8.924;2023-02-18T06:28:08;110.03;;;104.32;;
1140;SDS011;559;48.628;8.924;2023-02-18T06:30:36;116.63;;;110.82;;
1140;SDS011;559;48.628;8.924;2023-02-18T06:33:03;114.25;;;108.50;;
1140;SDS011;559;48.628;8.924;2023-02-18T06:35:30;109.78;;;104.20;;
1140;SDS011;559;48.628;8.924;2023-02-18T06:37:56;109.32;;;103.72;;
1140;SDS011;559;48.628;8.924;2023-02-18T06:40:23;111.38;;;105.78;;
1140;SDS011;559;48.628;8.924;2023-02-18T06:42:49;115.75;;;109.95;;
1140;SDS011;559;48.628;8.924;2023-02-18T06:45:16;111.07;;;105.57;;
1140;SDS011;559;48.628;8.924;2023-02-18T06:47:44;114.80;;;109.15;;
1140;SDS011;559;48.628;8.924;2023-02-18T06:50:10;110.00;;;104.40;;
1140;SDS011;559;48.628;8.924;2023-02-18T06:52:37;105.30;;;99.85;;
1140;SDS011;559;48.628;8.924;2023-02-18T06:55:03;107.95;;;102.45;;
1140;SDS011;559;48.628;8.924;2023-02-18T06:57:30;106.43;;;100.95;;
1140;SDS011;559;48.628;8.924;2023-02-18T06:59:57;104.55;;;99.18;;
1140;SDS011;559;48.628;8.924;2023-02-18T07:02:23;106.82;;;101.38;;
1140;SDS011;559;48.628;8.924;2023-02-18T07:04:51;98.13;;;93.03;;
1140;SDS011;559;48.628;8.924;2023-02-18T07:07:18;97.75;;;92.45;;
1140;SDS011;559;48.628;8.924;2023-02-18T07:09:44;96.70;;;91.60;;
1140;SDS011;559;48.628;8.924;2023-02-18T07:12:11;95.85;;;90.75;;
1140;SDS011;559;48.628;8.924;2023-02-18T07:14:38;94.50;;;89.50;;
1140;SDS011;559;48.628;8.924;2023-02-18T07:17:04;94.22;;;89.25;;
1140;SDS011;559;48.628;8.924;2023-02-18T07:19:31;93.25;;;88.35;;
1140;SDS011;559;48.628;8.924;2023-02-18T07:21:58;91.28;;;86.45;;
1140;SDS011;559;48.628;8.924;2023-02-18T07:24:25;92.15;;;87.35;;
1140;SDS011;559;48.628;8.924;2023-02-18T07:26:52;96.68;;;91.78;;
1140;SDS011;559;48.628;8.924;2023-02-18T07:29:18;89.97;;;85.28;;
1140;SDS011;559;48.628;8.924;2023-02-18T07:31:45;87.90;;;83.50;;
1140;SDS011;559;48.628;8.924;2023-02-18T07:34:11;87.60;;;83.20;;
1140;SDS011;559;48.628;8.924;2023-02-18T07:36:37;86.55;;;82.15;;
1140;SDS011;559;48.628;8.924;2023-02-18T07:39:05;89.20;;;84.70;;
1140;SDS011;559;48.628;8.924;2023-02-18T07:41:32;88.45;;;83.80;;
1140;SDS011;559;48.628;8.924;2023-02-18T07:43:58;87.03;;;82.32;;
1140;SDS011;559;48.628;8.924;2023-02-18T07:46:25;85.75;;;81.22;;
1140;SDS011;559;48.628;8.924;2023-02-18T07:48:51;87.05;;;82.47;;
1140;SDS011;559;48.628;8.924;2023-02-18T07:51:18;81.47;;;77.28;;
1140;SDS011;559;48.628;8.924;2023-02-18T07:53:44;84.35;;;79.95;;
1140;SDS011;559;48.628;8.924;2023-02-18T07:56:12;80.93;;;76.82;;
1140;SDS011;559;48.628;8.924;2023-02-18T07:58:39;79.55;;;75.45;;
1140;SDS011;559;48.628;8.924;2023-02-18T08:01:07;84.20;;;79.90;;
1140;SDS011;559;48.628;8.924;2023-02-18T08:03:35;82.28;;;78.15;;
1140;SDS011;559;48.628;8.924;2023-02-18T08:06:01;78.53;;;74.53;;
1140;SDS011;559;48.628;8.924;2023-02-18T08:08:29;79.20;;;75.35;;
1140;SDS011;559;48.628;8.924;2023-02-18T08:10:57;80.85;;;76.75;;
1140;SDS011;559;48.628;8.924;2023-02-18T08:13:27;77.22;;;73.32;;
1140;SDS011;559;48.628;8.924;2023-02-18T08:15:54;80.55;;;76.45;;
1140;SDS011;559;48.628;8.924;2023-02-18T08:18:21;83.00;;;78.82;;
1140;SDS011;559;48.628;8.924;2023-02-18T08:20:48;82.20;;;77.90;;
1140;SDS011;559;48.628;8.924;2023-02-18T08:23:17;77.45;;;73.35;;
1140;SDS011;559;48.628;8.924;2023-02-18T08:25:44;78.47;;;74.57;;
1140;SDS011;559;48.628;8.924;2023-02-18T08:28:11;77.07;;;73.25;;
1140;SDS011;559;48.628;8.924;2023-02-18T08:30:39;75.75;;;72.03;;
1140;SDS011;559;48.628;8.924;2023-02-18T08:33:09;76.15;;;72.35;;
1140;SDS011;559;48.628;8.924;2023-02-18T08:35:36;74.00;;;70.30;;
1140;SDS011;559;48.628;8.924;2023-02-18T08:38:02;72.88;;;69.20;;
1140;SDS011;559;48.628;8.924;2023-02-18T08:40:29;71.78;;;68.07;;
1140;SDS011;559;48.628;8.924;2023-02-18T08:42:55;70.72;;;67.13;;
1140;SDS011;559;48.628;8.924;2023-02-18T08:45:22;72.47;;;68.97;;
1140;SDS011;559;48.628;8.924;2023-02-18T08:47:49;70.40;;;66.90;;
1140;SDS011;559;48.628;8.924;2023-02-18T08:50:16;68.95;;;65.55;;
1140;SDS011;559;48.628;8.924;2023-02-18T08:52:44;74.18;;;70.28;;
1140;SDS011;559;48.628;8.924;2023-02-18T08:55:11;68.70;;;65.30;;
1140;SDS011;559;48.628;8.924;2023-02-18T08:57:38;70.90;;;67.30;;
1140;SDS011;559;48.628;8.924;2023-02-18T09:00:05;70.15;;;66.78;;
1140;SDS011;559;48.628;8.924;2023-02-18T09:02:32;68.00;;;64.70;;
1140;SDS011;559;48.628;8.924;2023-02-18T09:05:00;68.00;;;64.80;;
1140;SDS011;559;48.628;8.924;2023-02-18T09:07:27;67.63;;;64.43;;
1140;SDS011;559;48.628;8.924;2023-02-18T09:09:54;68.13;;;64.90;;
1140;SDS011;559;48.628;8.924;2023-02-18T09:12:20;68.15;;;64.85;;
1140;SDS011;559;48.628;8.924;2023-02-18T09:14:47;66.10;;;62.80;;
1140;SDS011;559;48.628;8.924;2023-02-18T09:17:13;68.32;;;65.03;;
1140;SDS011;559;48.628;8.924;2023-02-18T09:19:40;68.75;;;65.25;;
1140;SDS011;559;48.628;8.924;2023-02-18T09:22:08;66.78;;;63.47;;
1140;SDS011;559;48.628;8.924;2023-02-18T09:24:35;67.70;;;64.50;;
1140;SDS011;559;48.628;8.924;2023-02-18T09:27:02;67.35;;;64.15;;
1140;SDS011;559;48.628;8.924;2023-02-18T09:29:29;64.50;;;61.28;;
1140;SDS011;559;48.628;8.924;2023-02-18T09:31:58;64.75;;;61.65;;
1140;SDS011;559;48.628;8.924;2023-02-18T09:34:25;63.28;;;60.10;;
1140;SDS011;559;48.628;8.924;2023-02-18T09:36:51;62.50;;;59.70;;
1140;SDS011;559;48.628;8.924;2023-02-18T09:39:19;61.65;;;58.50;;
1140;SDS011;559;48.628;8.924;2023-02-18T09:41:46;61.00;;;58.30;;
1140;SDS011;559;48.628;8.924;2023-02-18T09:44:15;61.38;;;58.78;;
1140;SDS011;559;48.628;8.924;2023-02-18T09:46:45;61.00;;;58.33;;
1140;SDS011;559;48.628;8.924;2023-02-18T09:49:15;62.13;;;59.33;;
1140;SDS011;559;48.628;8.924;2023-02-18T09:51:42;60.45;;;57.72;;
1140;SDS011;559;48.628;8.924;2023-02-18T09:54:09;60.05;;;57.25;;
1140;SDS011;559;48.628;8.924;2023-02-18T09:56:38;60.60;;;57.80;;
1140;SDS011;559;48.628;8.924;2023-02-18T09:59:08;62.97;;;60.13;;
1140;SDS011;559;48.628;8.924;2023-02-18T10:01:37;61.13;;;58.53;;
1140;SDS011;559;48.628;8.924;2023-02-18T10:04:06;60.85;;;58.25;;
1140;SDS011;559;48.628;8.924;2023-02-18T10:06:37;60.83;;;58.13;;
1140;SDS011;559;48.628;8.924;2023-02-18T10:09:05;60.92;;;58.40;;
1140;SDS011;559;48.628;8.924;2023-02-18T10:11:41;61.90;;;59.30;;
1140;SDS011;559;48.628;8.924;2023-02-18T10:14:11;58.88;;;56.47;;
1140;SDS011;559;48.628;8.924;2023-02-18T10:16:39;57.10;;;54.70;;
1140;SDS011;559;48.628;8.924;2023-02-18T10:19:08;57.85;;;55.50;;
1140;SDS011;559;48.628;8.924;2023-02-18T10:21:44;58.75;;;56.25;;
1140;SDS011;559;48.628;8.924;2023-02-18T10:24:12;59.38;;;56.85;;
1140;SDS011;559;48.628;8.924;2023-02-18T10:26:46;58.50;;;56.00;;
1140;SDS011;559;48.628;8.924;2023-02-18T10:29:13;59.28;;;56.88;;
1140;SDS011;559;48.628;8.924;2023-02-18T10:31:42;58.42;;;56.03;;
1140;SDS011;559;48.628;8.924;2023-02-18T10:34:12;58.67;;;56.17;;
1140;SDS011;559;48.628;8.924;2023-02-18T10:36:43;57.72;;;55.33;;
1140;SDS011;559;48.628;8.924;2023-02-18T10:39:18;55.03;;;52.72;;
1140;SDS011;559;48.628;8.924;2023-02-18T10:41:53;56.45;;;54.15;;
1140;SDS011;559;48.628;8.924;2023-02-18T10:44:25;55.30;;;53.10;;
1140;SDS011;559;48.628;8.924;2023-02-18T10:46:58;56.40;;;54.10;;
1140;SDS011;559;48.628;8.924;2023-02-18T10:52:23;57.03;;;54.08;;
1140;SDS011;559;48.628;8.924;2023-02-18T10:54:56;54.50;;;52.30;;
1140;SDS011;559;48.628;8.924;2023-02-18T10:57:26;54.03;;;51.92;;
1140;SDS011;559;48.628;8.924;2023-02-18T10:59:53;54.33;;;52.13;;
1140;SDS011;559;48.628;8.924;2023-02-18T11:02:27;54.47;;;52.38;;
1140;SDS011;559;48.628;8.924;2023-02-18T11:04:55;56.33;;;54.22;;
1140;SDS011;559;48.628;8.924;2023-02-18T11:07:24;53.83;;;51.50;;
1140;SDS011;559;48.628;8.924;2023-02-18T11:09:52;53.40;;;51.25;;
1140;SDS011;559;48.628;8.924;2023-02-18T11:12:21;54.15;;;52.03;;
1140;SDS011;559;48.628;8.924;2023-02-18T11:15:02;53.97;;;51.75;;
1140;SDS011;559;48.628;8.924;2023-02-18T11:17:33;53.15;;;51.25;;
1140;SDS011;559;48.628;8.924;2023-02-18T11:20:02;52.53;;;50.55;;
1140;SDS011;559;48.628;8.924;2023-02-18T11:22:34;50.38;;;48.75;;
1140;SDS011;559;48.628;8.924;2023-02-18T11:25:17;46.95;;;45.30;;
1140;SDS011;559;48.628;8.924;2023-02-18T11:27:45;45.75;;;44.35;;
1140;SDS011;559;48.628;8.924;2023-02-18T11:30:18;44.17;;;42.78;;
1140;SDS011;559;48.628;8.924;2023-02-18T11:32:46;46.90;;;45.03;;
1140;SDS011;559;48.628;8.924;2023-02-18T11:35:16;46.15;;;44.58;;
1140;SDS011;559;48.628;8.924;2023-02-18T11:37:44;46.50;;;44.88;;
1140;SDS011;559;48.628;8.924;2023-02-18T11:40:18;45.38;;;43.88;;
1140;SDS011;559;48.628;8.924;2023-02-18T11:42:46;43.55;;;42.25;;
1140;SDS011;559;48.628;8.924;2023-02-18T11:45:25;40.03;;;38.63;;
1140;SDS011;559;48.628;8.924;2023-02-18T11:47:57;41.25;;;39.97;;
1140;SDS011;559;48.628;8.924;2023-02-18T11:50:24;41.58;;;40.05;;
1140;SDS011;559;48.628;8.924;2023-02-18T11:52:51;40.17;;;38.97;;
1140;SDS011;559;48.628;8.924;2023-02-18T11:55:20;41.80;;;40.60;;
1140;SDS011;559;48.628;8.924;2023-02-18T11:57:49;40.38;;;39.15;;
1140;SDS011;559;48.628;8.924;2023-02-18T12:00:21;40.63;;;39.15;;
1140;SDS011;559;48.628;8.924;2023-02-18T12:02:51;39.58;;;38.38;;
1140;SDS011;559;48.628;8.924;2023-02-18T12:05:20;38.80;;;37.67;;
1140;SDS011;559;48.628;8.924;2023-02-18T12:07:49;37.85;;;36.85;;
1140;SDS011;559;48.628;8.924;2023-02-18T12:10:18;34.03;;;33.03;;
1140;SDS011;559;48.628;8.924;2023-02-18T12:12:48;34.80;;;33.80;;
1140;SDS011;559;48.628;8.924;2023-02-18T12:15:17;37.50;;;36.30;;
1140;SDS011;559;48.628;8.924;2023-02-18T12:18:01;39.38;;;38.25;;
1140;SDS011;559;48.628;8.924;2023-02-18T12:20:46;41.38;;;40.17;;
1140;SDS011;559;48.628;8.924;2023-02-18T12:23:20;41.97;;;40.78;;
1140;SDS011;559;48.628;8.924;2023-02-18T12:25:53;44.08;;;42.75;;
1140;SDS011;559;48.628;8.924;2023-02-18T12:28:31;44.40;;;43.17;;
1140;SDS011;559;48.628;8.924;2023-02-18T12:31:12;45.80;;;44.50;;
1140;SDS011;559;48.628;8.924;2023-02-18T12:33:49;49.28;;;47.60;;
1140;SDS011;559;48.628;8.924;2023-02-18T12:36:24;43.72;;;42.50;;
1140;SDS011;559;48.628;8.924;2023-02-18T12:39:01;41.95;;;40.75;;
1140;SDS011;559;48.628;8.924;2023-02-18T12:41:34;41.90;;;40.60;;
1140;SDS011;559;48.628;8.924;2023-02-18T12:44:09;42.80;;;41.60;;
1140;SDS011;559;48.628;8.924;2023-02-18T12:46:47;42.83;;;41.55;;
1140;SDS011;559;48.628;8.924;2023-02-18T12:49:25;41.65;;;40.30;;
1140;SDS011;559;48.628;8.924;2023-02-18T12:52:08;43.10;;;41.88;;
1140;SDS011;559;48.628;8.924;2023-02-18T12:54:45;43.60;;;42.35;;
1140;SDS011;559;48.628;8.924;2023-02-18T12:57:22;44.63;;;43.22;;
1140;SDS011;559;48.628;8.924;2023-02-18T13:00:02;44.15;;;42.72;;
1140;SDS011;559;48.628;8.924;2023-02-18T13:03:00;43.63;;;42.33;;
1140;SDS011;559;48.628;8.924;2023-02-18T13:05:42;43.70;;;42.42;;
1140;SDS011;559;48.628;8.924;2023-02-18T13:08:17;49.80;;;48.38;;
1140;SDS011;559;48.628;8.924;2023-02-18T13:10:53;50.45;;;48.95;;
1140;SDS011;559;48.628;8.924;2023-02-18T13:13:25;48.78;;;47.38;;
1140;SDS011;559;48.628;8.924;2023-02-18T13:15:52;46.60;;;45.03;;
1140;SDS011;559;48.628;8.924;2023-02-18T13:18:22;47.28;;;45.97;;
1140;SDS011;559;48.628;8.924;2023-02-18T13:20:53;44.20;;;43.00;;
1140;SDS011;559;48.628;8.924;2023-02-18T13:23:21;45.42;;;44.13;;
1140;SDS011;559;48.628;8.924;2023-02-18T13:25:50;50.55;;;49.05;;
1140;SDS011;559;48.628;8.924;2023-02-18T13:28:20;52.00;;;50.50;;
1140;SDS011;559;48.628;8.924;2023-02-18T13:30:51;51.45;;;50.03;;
1140;SDS011;559;48.628;8.924;2023-02-18T13:33:27;50.03;;;48.63;;
1140;SDS011;559;48.628;8.924;2023-02-18T13:36:02;45.63;;;44.33;;
1140;SDS011;559;48.628;8.924;2023-02-18T13:38:46;48.60;;;45.78;;
1140;SDS011;559;48.628;8.924;2023-02-18T13:41:16;50.50;;;49.10;;
1140;SDS011;559;48.628;8.924;2023-02-18T13:43:43;56.08;;;54.47;;
1140;SDS011;559;48.628;8.924;2023-02-18T13:46:11;56.92;;;55.33;;
1140;SDS011;559;48.628;8.924;2023-02-18T13:48:41;59.03;;;57.42;;
1140;SDS011;559;48.628;8.924;2023-02-18T13:51:12;57.17;;;55.58;;
1140;SDS011;559;48.628;8.924;2023-02-18T13:53:40;58.28;;;55.78;;
1140;SDS011;559;48.628;8.924;2023-02-18T13:56:09;53.90;;;52.20;;
1140;SDS011;559;48.628;8.924;2023-02-18T13:58:38;55.28;;;53.63;;
1140;SDS011;559;48.628;8.924;2023-02-18T14:01:12;49.17;;;47.83;;
1140;SDS011;559;48.628;8.924;2023-02-18T14:03:57;42.88;;;41.67;;
1140;SDS011;559;48.628;8.924;2023-02-18T14:06:26;43.65;;;42.35;;
1140;SDS011;559;48.628;8.924;2023-02-18T14:09:25;47.95;;;46.65;;
1140;SDS011;559;48.628;8.924;2023-02-18T14:12:14;44.78;;;43.47;;
1140;SDS011;559;48.628;8.924;2023-02-18T14:14:43;47.00;;;45.70;;
1140;SDS011;559;48.628;8.924;2023-02-18T14:26:17;51.03;;;49.63;;
1140;SDS011;559;48.628;8.924;2023-02-18T14:28:49;52.80;;;51.30;;
1140;SDS011;559;48.628;8.924;2023-02-18T14:37:24;51.40;;;49.90;;
1140;SDS011;559;48.628;8.924;2023-02-18T14:40:19;51.33;;;49.88;;
1140;SDS011;559;48.628;8.924;2023-02-18T14:42:52;54.78;;;52.90;;
1140;SDS011;559;48.628;8.924;2023-02-18T14:45:27;48.53;;;47.15;;
1140;SDS011;559;48.628;8.924;2023-02-18T14:48:06;43.42;;;42.22;;
1140;SDS011;559;48.628;8.924;2023-02-18T14:50:40;44.88;;;43.60;;
1140;SDS011;559;48.628;8.924;2023-02-18T14:53:10;46.03;;;44.83;;
1140;SDS011;559;48.628;8.924;2023-02-18T14:55:42;47.23;;;45.73;;
1140;SDS011;559;48.628;8.924;2023-02-18T14:58:14;45.30;;;44.10;;
1140;SDS011;559;48.628;8.924;2023-02-18T15:00:47;46.72;;;45.45;;
1140;SDS011;559;48.628;8.924;2023-02-18T15:03:16;49.22;;;47.92;;
1140;SDS011;559;48.628;8.924;2023-02-18T15:05:45;48.80;;;47.40;;
1140;SDS011;559;48.628;8.924;2023-02-18T15:08:13;53.78;;;52.28;;
1140;SDS011;559;48.628;8.924;2023-02-18T15:10:41;53.83;;;52.22;;
1140;SDS011;559;48.628;8.924;2023-02-18T15:13:13;56.15;;;54.58;;
1140;SDS011;559;48.628;8.924;2023-02-18T15:15:41;58.00;;;56.30;;
1140;SDS011;559;48.628;8.924;2023-02-18T15:18:11;65.43;;;63.63;;
1140;SDS011;559;48.628;8.924;2023-02-18T15:20:44;60.63;;;58.90;;
1140;SDS011;559;48.628;8.924;2023-02-18T15:23:10;59.33;;;57.78;;
1140;SDS011;559;48.628;8.924;2023-02-18T15:25:39;53.65;;;52.25;;
1140;SDS011;559;48.628;8.924;2023-02-18T15:28:05;52.28;;;50.88;;
1140;SDS011;559;48.628;8.924;2023-02-18T15:30:43;59.97;;;58.35;;
1140;SDS011;559;48.628;8.924;2023-02-18T15:33:10;69.85;;;67.88;;